Sunnydell, Idaho
Current Conditions -  °F | °C
As of 11:53 AM on Friday 24 Oct 2014 (Local Time) from KRXE Reporting Station
Broken Clouds Broken Clouds  
Wind Chill: 59°   Ceiling: 8500
Heat Index: 59°   Visibility: 10mi
Dew Point: 37°   Wind: 7mph
Humidity: 44%   Direction: NA
Pressure: 30.16"   Gusts: NA
Location:  43.7568°N, 111.624°W
Report Text: KRXE 241753Z AUTO VRB06KT 10SM BKN085 15/03 A3016 RMK AO2 SLP193 T01500028 10150 20100 50001
Loading
Personal Weather Stations






























Interactive Weather Map
Tropical Storm Tracking
New forecast layout! Learn more

10-Day Weather Forecast

Advertisements
Track Severe Weather on mobile